createdAt,value
2018-07-20T00:01:07.589Z,45.09
2018-07-20T00:02:17.254Z,44.89
2018-07-20T00:03:26.424Z,44.99
2018-07-20T00:04:36.344Z,45.09
2018-07-20T00:05:45.498Z,44.89
2018-07-20T00:06:54.910Z,45.09
2018-07-20T00:08:04.155Z,44.99
2018-07-20T00:09:13.453Z,44.99
2018-07-20T00:10:22.857Z,44.99
2018-07-20T00:11:32.276Z,44.99
2018-07-20T00:12:41.451Z,45.09
2018-07-20T00:13:50.344Z,45.09
2018-07-20T00:14:59.762Z,44.99
2018-07-20T00:16:08.401Z,45.09
2018-07-20T00:17:17.817Z,45.09
2018-07-20T00:18:27.766Z,44.89
2018-07-20T00:19:36.652Z,44.99
2018-07-20T00:20:45.559Z,45.18
2018-07-20T00:21:55.225Z,44.99
2018-07-20T00:23:04.890Z,44.99
2018-07-20T00:24:14.035Z,44.99
2018-07-20T00:25:23.437Z,44.99
2018-07-20T00:26:32.594Z,44.99
2018-07-20T00:27:42.515Z,44.99
2018-07-20T00:28:51.939Z,44.89
2018-07-20T00:30:01.090Z,44.89
2018-07-20T00:31:09.987Z,45.18
2018-07-20T00:32:19.133Z,44.89
2018-07-20T00:33:28.275Z,44.99
2018-07-20T00:34:37.437Z,45.18
2018-07-20T00:35:46.608Z,44.89
2018-07-20T00:36:56.013Z,44.99
2018-07-20T00:38:05.428Z,44.99
2018-07-20T00:39:15.082Z,44.99
2018-07-20T00:40:24.500Z,44.99
2018-07-20T00:41:33.654Z,44.99
2018-07-20T00:42:42.811Z,45.09
2018-07-20T00:43:52.484Z,45.09
2018-07-20T00:45:01.903Z,44.99
2018-07-20T00:46:11.326Z,45.09
2018-07-20T00:47:20.479Z,44.89
2018-07-20T00:48:30.141Z,44.99
2018-07-20T00:49:40.078Z,44.99
2018-07-20T00:50:49.739Z,44.99
2018-07-20T00:51:59.140Z,44.89
2018-07-20T00:53:08.589Z,44.99
2018-07-20T00:54:18.275Z,45.09
2018-07-20T00:55:27.677Z,44.99
2018-07-20T00:56:37.105Z,45.18
2018-07-20T00:57:46.835Z,44.99
2018-07-20T00:58:56.578Z,44.99
2018-07-20T01:00:05.995Z,44.99
2018-07-20T01:01:15.403Z,44.89
2018-07-20T01:02:24.817Z,44.89
2018-07-20T01:03:33.721Z,45.09
2018-07-20T01:04:43.132Z,44.99
2018-07-20T01:05:52.533Z,45.09
2018-07-20T01:07:01.941Z,44.89
2018-07-20T01:08:10.830Z,44.99
2018-07-20T01:09:19.738Z,44.99
2018-07-20T01:10:29.148Z,44.99
2018-07-20T01:11:38.291Z,44.99
2018-07-20T01:12:47.692Z,44.89
2018-07-20T01:13:57.388Z,44.99
2018-07-20T01:15:06.805Z,44.99
2018-07-20T01:16:15.956Z,44.89
2018-07-20T01:17:25.354Z,44.99
2018-07-20T01:18:34.756Z,44.89
2018-07-20T01:19:43.905Z,44.99
2018-07-20T01:20:53.309Z,44.99
2018-07-20T01:22:02.973Z,44.89
2018-07-20T01:23:12.133Z,44.89
2018-07-20T01:24:21.790Z,44.99
2018-07-20T01:25:31.195Z,44.99
2018-07-20T01:26:40.349Z,44.99
2018-07-20T01:27:50.007Z,44.89
2018-07-20T01:28:59.684Z,44.99
2018-07-20T01:30:09.369Z,44.99
2018-07-20T01:31:18.781Z,44.99
2018-07-20T01:32:27.928Z,44.99
2018-07-20T01:33:37.070Z,44.89
2018-07-20T01:34:46.488Z,44.99
2018-07-20T01:35:55.893Z,44.99
2018-07-20T01:37:05.043Z,44.99
2018-07-20T01:38:14.458Z,44.99
2018-07-20T01:39:23.633Z,44.99
2018-07-20T01:40:33.031Z,44.89
2018-07-20T01:41:42.683Z,44.99
2018-07-20T01:42:52.365Z,44.99
2018-07-20T01:44:01.521Z,44.99
2018-07-20T01:45:10.690Z,44.99
2018-07-20T01:46:20.109Z,44.99
2018-07-20T01:47:29.514Z,44.99
2018-07-20T01:48:39.187Z,44.79
2018-07-20T01:49:48.849Z,44.89
2018-07-20T01:50:58.020Z,44.99
2018-07-20T01:52:07.681Z,44.99
2018-07-20T01:53:16.830Z,44.99
2018-07-20T01:54:26.254Z,44.99
2018-07-20T01:55:35.930Z,44.89
2018-07-20T01:56:44.818Z,44.99
2018-07-20T01:57:54.228Z,45.09
2018-07-20T01:59:03.381Z,44.89
2018-07-20T02:00:12.264Z,44.89
2018-07-20T02:01:21.422Z,44.99
2018-07-20T02:02:30.574Z,44.89
2018-07-20T02:03:40.244Z,45.09
2018-07-20T02:04:49.127Z,44.99
2018-07-20T02:05:58.555Z,44.99
2018-07-20T02:07:07.719Z,45.09
2018-07-20T02:08:16.630Z,44.89
2018-07-20T02:09:26.035Z,45.09
2018-07-20T02:10:35.445Z,44.99
2018-07-20T02:11:44.846Z,44.99
2018-07-20T02:12:54.247Z,44.99
2018-07-20T02:14:03.657Z,44.99
2018-07-20T02:15:12.593Z,44.99
2018-07-20T02:16:21.180Z,44.99
2018-07-20T02:17:30.747Z,44.89
2018-07-20T02:18:40.153Z,44.89
2018-07-20T02:19:49.053Z,45.09
2018-07-20T02:20:58.201Z,44.89
2018-07-20T02:22:07.351Z,45.09
2018-07-20T02:23:17.016Z,44.89
2018-07-20T02:24:25.903Z,44.99
2018-07-20T02:25:35.312Z,44.99
2018-07-20T02:26:44.976Z,45.09
2018-07-20T02:27:54.667Z,45.09
2018-07-20T02:29:03.814Z,44.99
2018-07-20T02:30:13.233Z,44.89
2018-07-20T02:31:22.927Z,44.89
2018-07-20T02:32:32.618Z,44.89
2018-07-20T02:33:42.040Z,44.99
2018-07-20T02:34:51.220Z,44.99
2018-07-20T02:36:00.391Z,44.99
2018-07-20T02:37:09.807Z,44.99
2018-07-20T02:38:19.241Z,44.99
2018-07-20T02:39:28.432Z,44.89
2018-07-20T02:40:38.410Z,44.89
2018-07-20T02:41:48.092Z,44.99
2018-07-20T02:42:57.534Z,44.89
2018-07-20T02:44:06.436Z,44.99
2018-07-20T02:45:15.864Z,44.99
2018-07-20T02:46:25.287Z,45.09
2018-07-20T02:47:34.722Z,44.99
2018-07-20T02:48:44.145Z,44.99
2018-07-20T02:49:53.597Z,44.99
2018-07-20T02:51:03.536Z,44.99
2018-07-20T02:52:12.968Z,44.99
2018-07-20T02:53:21.892Z,45.09
2018-07-20T02:54:31.097Z,44.89
2018-07-20T02:55:40.782Z,44.99
2018-07-20T02:56:49.936Z,44.89
2018-07-20T02:57:59.621Z,44.99
2018-07-20T02:59:09.045Z,44.99
2018-07-20T03:00:18.494Z,44.99
2018-07-20T03:01:27.968Z,44.89
2018-07-20T03:02:37.659Z,44.99
2018-07-20T03:03:47.133Z,44.89
2018-07-20T03:04:56.295Z,44.99
2018-07-20T03:06:05.735Z,44.99
2018-07-20T03:07:15.184Z,44.89
2018-07-20T03:08:24.373Z,44.99
2018-07-20T03:09:33.578Z,44.99
2018-07-20T03:10:43.028Z,45.09
2018-07-20T03:11:52.739Z,44.99
2018-07-20T03:13:02.176Z,44.89
2018-07-20T03:14:11.862Z,44.99
2018-07-20T03:15:53.649Z,44.89
2018-07-20T03:17:02.812Z,44.99
2018-07-20T03:18:12.220Z,44.99
2018-07-20T03:19:21.165Z,44.99
2018-07-20T03:20:31.128Z,45.09
2018-07-20T03:21:40.283Z,45.09
2018-07-20T03:22:49.979Z,44.89
2018-07-20T03:23:59.672Z,44.89
2018-07-20T03:25:08.929Z,44.99
2018-07-20T03:26:18.608Z,44.89
2018-07-20T03:27:28.199Z,44.89
2018-07-20T03:28:37.905Z,44.99
2018-07-20T03:29:47.834Z,44.99
2018-07-20T03:30:57.504Z,44.99
2018-07-20T03:32:06.683Z,44.79
2018-07-20T03:33:16.431Z,45.09
2018-07-20T03:34:25.850Z,44.89
2018-07-20T03:35:35.799Z,44.99
2018-07-20T03:36:45.724Z,44.99
2018-07-20T03:37:54.861Z,45.18
2018-07-20T03:39:04.540Z,44.89
2018-07-20T03:40:13.441Z,44.99
2018-07-20T03:41:22.862Z,44.99
2018-07-20T03:42:31.507Z,44.99
2018-07-20T03:43:41.493Z,44.89
2018-07-20T03:44:50.887Z,44.99
2018-07-20T03:45:59.789Z,44.99
2018-07-20T03:47:09.211Z,44.79
2018-07-20T03:48:18.867Z,44.99
2018-07-20T03:49:28.533Z,44.99
2018-07-20T03:50:37.686Z,44.99
2018-07-20T03:51:46.873Z,44.79
2018-07-20T03:52:56.548Z,44.99
2018-07-20T03:54:05.694Z,44.99
2018-07-20T03:55:14.590Z,44.89
2018-07-20T03:56:23.994Z,44.79
2018-07-20T03:57:33.173Z,44.89
2018-07-20T03:58:42.581Z,44.99
2018-07-20T03:59:51.993Z,44.99
2018-07-20T04:01:01.141Z,44.89
2018-07-20T04:02:10.292Z,44.89
2018-07-20T04:03:19.460Z,44.89
2018-07-20T04:04:28.350Z,44.99
2018-07-20T04:05:37.750Z,44.79
2018-07-20T04:06:47.181Z,44.89
2018-07-20T04:07:56.348Z,44.99
2018-07-20T04:09:05.237Z,45.09
2018-07-20T04:10:14.744Z,44.99
2018-07-20T04:11:24.792Z,44.99
2018-07-20T04:12:34.211Z,45.09
2018-07-20T04:13:43.384Z,44.99
2018-07-20T04:14:52.530Z,45.09
2018-07-20T04:16:02.220Z,44.89
2018-07-20T04:17:11.632Z,44.99
2018-07-20T04:18:21.301Z,44.99
2018-07-20T04:19:31.229Z,44.99
2018-07-20T04:20:40.122Z,44.89
2018-07-20T04:21:49.271Z,45.09
2018-07-20T04:22:58.418Z,45.09
2018-07-20T04:24:07.824Z,44.89
2018-07-20T04:25:17.487Z,45.09
2018-07-20T04:26:26.892Z,44.99
2018-07-20T04:27:36.618Z,44.99
2018-07-20T04:28:46.029Z,44.89
2018-07-20T04:29:55.176Z,44.99
2018-07-20T04:31:04.876Z,44.99
2018-07-20T04:32:13.814Z,44.99
2018-07-20T04:33:23.485Z,44.89
2018-07-20T04:34:32.949Z,45.09
2018-07-20T04:35:42.100Z,44.99
2018-07-20T04:36:51.245Z,44.99
2018-07-20T04:38:00.904Z,44.99
2018-07-20T04:39:10.581Z,44.99
2018-07-20T04:40:19.996Z,44.89
2018-07-20T04:41:29.156Z,44.99
2018-07-20T04:42:38.049Z,44.99
2018-07-20T04:43:47.599Z,44.99
2018-07-20T04:44:57.103Z,44.99
2018-07-20T04:46:06.256Z,44.89
2018-07-20T04:47:15.147Z,44.89
2018-07-20T04:48:24.806Z,44.99
2018-07-20T04:49:34.486Z,45.09
2018-07-20T04:50:43.407Z,44.99
2018-07-20T04:51:52.615Z,45.09
2018-07-20T04:53:01.773Z,44.99
2018-07-20T04:54:11.442Z,44.99
2018-07-20T04:55:20.350Z,45.09
2018-07-20T04:56:29.518Z,44.99
2018-07-20T04:57:39.445Z,44.99
2018-07-20T04:58:48.517Z,44.99
2018-07-20T04:59:58.059Z,44.99
2018-07-20T05:01:07.519Z,44.99
2018-07-20T05:02:16.945Z,44.99
2018-07-20T05:03:26.893Z,44.99
2018-07-20T05:04:36.309Z,44.99
2018-07-20T05:05:46.265Z,45.09
2018-07-20T05:06:55.604Z,44.99
2018-07-20T05:08:05.047Z,44.99
2018-07-20T05:09:14.965Z,44.99
2018-07-20T05:10:24.370Z,44.99
2018-07-20T05:11:34.143Z,44.99
2018-07-20T05:12:43.810Z,44.99
2018-07-20T05:13:52.950Z,44.99
2018-07-20T05:15:02.536Z,45.09
2018-07-20T05:16:11.672Z,44.99
2018-07-20T05:17:21.176Z,44.89
2018-07-20T05:18:30.644Z,44.89
2018-07-20T05:19:40.628Z,44.99
2018-07-20T05:20:49.803Z,44.99
2018-07-20T05:21:58.957Z,44.99
2018-07-20T05:23:07.848Z,44.99
2018-07-20T05:24:17.138Z,44.89
2018-07-20T05:25:26.285Z,45.09
2018-07-20T05:26:35.733Z,44.99
2018-07-20T05:27:44.884Z,44.99
2018-07-20T05:28:53.788Z,45.09
2018-07-20T05:30:02.961Z,45.09
2018-07-20T05:31:12.719Z,44.89
2018-07-20T05:32:22.163Z,44.99
2018-07-20T05:33:31.840Z,44.99
2018-07-20T05:34:41.236Z,44.99
2018-07-20T05:35:50.651Z,44.99
2018-07-20T05:36:59.792Z,44.99
2018-07-20T05:38:09.261Z,44.99
2018-07-20T05:39:19.002Z,44.79
2018-07-20T05:40:28.412Z,44.99
2018-07-20T05:41:37.305Z,44.89
2018-07-20T05:42:46.980Z,45.09
2018-07-20T05:43:56.440Z,44.99
2018-07-20T05:45:06.563Z,44.99
2018-07-20T05:46:15.713Z,44.99
2018-07-20T05:47:24.868Z,45.09
2018-07-20T05:48:34.077Z,44.99
2018-07-20T05:49:43.270Z,45.09
2018-07-20T05:50:52.688Z,44.99
2018-07-20T05:52:01.839Z,44.89
2018-07-20T05:53:10.995Z,44.89
2018-07-20T05:54:19.671Z,44.99
2018-07-20T05:55:29.101Z,44.89
2018-07-20T05:56:38.876Z,44.89
2018-07-20T05:57:47.828Z,44.99
2018-07-20T05:58:56.995Z,44.99
2018-07-20T06:00:06.241Z,44.99
2018-07-20T06:01:15.428Z,44.89
2018-07-20T06:02:24.884Z,45.09
2018-07-20T06:03:34.343Z,44.89
2018-07-20T06:04:44.074Z,44.89
2018-07-20T06:05:53.506Z,44.89
2018-07-20T06:07:02.968Z,45.09
2018-07-20T06:08:12.488Z,44.99
2018-07-20T06:09:21.628Z,44.99
2018-07-20T06:10:30.807Z,44.99
2018-07-20T06:11:39.895Z,44.99
2018-07-20T06:12:49.243Z,45.09
2018-07-20T06:13:58.393Z,44.99
2018-07-20T06:15:07.668Z,44.99
2018-07-20T06:16:17.413Z,45.09
2018-07-20T06:17:26.376Z,45.09
2018-07-20T06:18:36.104Z,45.09
2018-07-20T06:19:45.515Z,45.09
2018-07-20T06:20:54.942Z,44.99
2018-07-20T06:22:04.093Z,44.99
2018-07-20T06:23:13.795Z,45.09
2018-07-20T06:24:23.742Z,45.09
2018-07-20T06:25:33.405Z,45.09
2018-07-20T06:26:42.815Z,45.09
2018-07-20T06:27:52.214Z,45.09
2018-07-20T06:29:01.631Z,45.09
2018-07-20T06:30:10.792Z,44.99
2018-07-20T06:31:19.968Z,44.99
2018-07-20T06:32:29.375Z,44.99
2018-07-20T06:33:38.795Z,45.09
2018-07-20T06:34:48.225Z,45.18
2018-07-20T06:35:57.959Z,45.09
2018-07-20T06:37:07.710Z,44.99
2018-07-20T06:38:17.140Z,45.28
2018-07-20T06:39:26.812Z,44.99
2018-07-20T06:40:35.725Z,45.09
2018-07-20T06:41:45.844Z,44.99
2018-07-20T06:42:56.184Z,44.99
2018-07-20T06:44:05.386Z,45.09
2018-07-20T06:45:14.552Z,44.99
2018-07-20T06:46:24.025Z,45.18
2018-07-20T06:47:33.878Z,45.09
2018-07-20T06:48:43.566Z,45.09
2018-07-20T06:49:53.229Z,44.99
2018-07-20T06:51:02.399Z,45.18
2018-07-20T06:52:11.816Z,45.18
2018-07-20T06:53:20.459Z,45.09
2018-07-20T06:54:29.372Z,45.09
2018-07-20T06:55:38.030Z,45.18
2018-07-20T06:56:46.956Z,45.09
2018-07-20T06:57:56.384Z,45.18
2018-07-20T06:59:05.546Z,45.09
2018-07-20T07:00:15.232Z,45.28
2018-07-20T07:01:24.406Z,45.18
2018-07-20T07:02:34.107Z,45.18
2018-07-20T07:03:43.509Z,45.18
2018-07-20T07:04:52.673Z,45.09
2018-07-20T07:06:02.089Z,45.18
2018-07-20T07:07:11.498Z,45.28
2018-07-20T07:08:20.407Z,45.09
2018-07-20T07:09:30.020Z,45.28
2018-07-20T07:10:40.292Z,45.09
2018-07-20T07:11:49.961Z,45.28
2018-07-20T07:12:59.102Z,45.18
2018-07-20T07:14:08.503Z,45.09
2018-07-20T07:15:18.348Z,45.18
2018-07-20T07:16:27.271Z,45.18
2018-07-20T07:17:36.939Z,45.18
2018-07-20T07:18:46.092Z,45.09
2018-07-20T07:19:54.990Z,45.18
2018-07-20T07:21:04.419Z,45.18
2018-07-20T07:22:14.153Z,45.28
2018-07-20T07:23:23.442Z,45.28
2018-07-20T07:24:32.914Z,45.09
2018-07-20T07:25:42.066Z,45.18
2018-07-20T07:26:51.561Z,45.09
2018-07-20T07:28:01.254Z,45.18
2018-07-20T07:29:10.770Z,45.18
2018-07-20T07:30:21.322Z,45.28
2018-07-20T07:31:30.488Z,45.18
2018-07-20T07:32:40.413Z,45.18
2018-07-20T07:33:49.842Z,45.18
2018-07-20T07:34:58.999Z,45.18
2018-07-20T07:36:08.685Z,45.09
2018-07-20T07:37:17.600Z,45.09
2018-07-20T07:38:27.026Z,45.18
2018-07-20T07:39:36.439Z,45.18
2018-07-20T07:40:45.344Z,45.09
2018-07-20T07:41:54.504Z,45.09
2018-07-20T07:43:04.178Z,45.09
2018-07-20T07:44:13.595Z,45.09
2018-07-20T07:45:23.007Z,45.09
2018-07-20T07:46:32.439Z,44.79
2018-07-20T07:47:41.608Z,45.09
2018-07-20T07:48:50.513Z,45.28
2018-07-20T07:49:59.672Z,45.09
2018-07-20T07:51:09.366Z,45.18
2018-07-20T07:52:18.513Z,44.99
2018-07-20T07:53:27.929Z,44.99
2018-07-20T07:54:37.156Z,45.09
2018-07-20T07:55:46.881Z,44.99
2018-07-20T07:56:56.312Z,45.09
2018-07-20T07:58:05.736Z,44.79
2018-07-20T07:59:14.893Z,45.28
2018-07-20T08:00:24.556Z,44.89
2018-07-20T08:01:33.718Z,45.28
2018-07-20T08:02:43.190Z,45.28
2018-07-20T08:03:52.341Z,44.79
2018-07-20T08:05:01.505Z,44.79
2018-07-20T08:06:11.163Z,44.99
2018-07-20T08:07:20.828Z,44.99
2018-07-20T08:08:29.827Z,44.79
2018-07-20T08:09:39.024Z,45.09
2018-07-20T08:10:48.699Z,44.89
2018-07-20T08:11:58.388Z,45.09
2018-07-20T08:13:07.297Z,44.99
2018-07-20T08:14:17.009Z,44.89
2018-07-20T08:15:26.927Z,44.99
2018-07-20T08:16:36.600Z,44.79
2018-07-20T08:17:46.010Z,44.89
2018-07-20T08:18:55.414Z,44.89
2018-07-20T08:20:04.374Z,44.79
2018-07-20T08:21:13.552Z,45.09
2018-07-20T08:22:22.951Z,44.79
2018-07-20T08:23:32.624Z,44.79
2018-07-20T08:24:42.038Z,44.99
2018-07-20T08:25:51.452Z,44.79
2018-07-20T08:27:00.607Z,44.89
2018-07-20T08:28:10.019Z,44.89
2018-07-20T08:29:19.753Z,44.89
2018-07-20T08:30:29.625Z,44.79
2018-07-20T08:31:38.793Z,44.79
2018-07-20T08:32:48.208Z,44.79
2018-07-20T08:33:57.651Z,44.89
2018-07-20T08:35:07.480Z,45.18
2018-07-20T08:36:17.448Z,44.99
2018-07-20T08:37:26.613Z,44.51
2018-07-20T08:38:35.783Z,44.99
2018-07-20T08:39:44.726Z,44.79
2018-07-20T08:40:54.173Z,44.99
2018-07-20T08:42:03.373Z,44.79
2018-07-20T08:43:12.802Z,44.79
2018-07-20T08:44:21.692Z,44.6
2018-07-20T08:45:30.841Z,44.89
2018-07-20T08:46:39.779Z,44.79
2018-07-20T08:47:49.810Z,44.89
2018-07-20T08:48:59.214Z,44.89
2018-07-20T08:50:08.392Z,44.99
2018-07-20T08:51:17.574Z,44.89
2018-07-20T08:52:26.479Z,44.99
2018-07-20T08:53:35.625Z,44.51
2018-07-20T08:54:44.782Z,44.51
2018-07-20T08:55:54.210Z,44.79
2018-07-20T08:57:03.428Z,44.6
2018-07-20T08:58:12.849Z,44.51
2018-07-20T08:59:22.260Z,44.51
2018-07-20T09:00:31.680Z,44.89
2018-07-20T09:01:40.577Z,44.51
2018-07-20T09:02:50.233Z,44.79
2018-07-20T09:03:59.896Z,44.41
2018-07-20T09:05:09.831Z,44.41
2018-07-20T09:06:19.492Z,44.51
2018-07-20T09:07:29.341Z,44.79
2018-07-20T09:08:38.513Z,44.89
2018-07-20T09:09:47.656Z,44.79
2018-07-20T09:10:56.818Z,44.79
2018-07-20T09:12:05.710Z,44.79
2018-07-20T09:13:15.116Z,44.79
2018-07-20T09:14:24.279Z,44.79
2018-07-20T09:15:33.966Z,44.51
2018-07-20T09:16:43.368Z,44.41
2018-07-20T09:17:53.041Z,44.51
2018-07-20T09:19:02.187Z,44.79
2018-07-20T09:20:11.400Z,44.51
2018-07-20T09:21:20.806Z,44.7
2018-07-20T09:22:30.472Z,44.7
2018-07-20T09:23:40.143Z,44.41
2018-07-20T09:24:49.302Z,44.51
2018-07-20T09:25:59.223Z,44.51
2018-07-20T09:27:08.903Z,44.89
2018-07-20T09:28:18.403Z,44.7
2018-07-20T09:29:28.328Z,44.51
2018-07-20T09:30:37.480Z,44.51
2018-07-20T09:31:46.899Z,44.6
2018-07-20T09:32:56.578Z,44.41
2018-07-20T09:34:05.781Z,44.7
2018-07-20T09:35:15.471Z,44.79
2018-07-20T09:36:25.130Z,44.7
2018-07-20T09:37:34.296Z,44.7
2018-07-20T09:38:43.706Z,44.7
2018-07-20T09:39:52.851Z,44.7
2018-07-20T09:41:02.799Z,44.7
2018-07-20T09:42:11.735Z,44.6
2018-07-20T09:43:21.162Z,44.7
2018-07-20T09:44:31.144Z,44.7
2018-07-20T09:45:40.702Z,44.6
2018-07-20T09:46:49.636Z,44.6
2018-07-20T09:47:59.054Z,44.6
2018-07-20T09:49:08.459Z,44.6
2018-07-20T09:50:17.370Z,44.6
2018-07-20T09:51:27.044Z,44.6
2018-07-20T09:52:36.203Z,44.6
2018-07-20T09:53:45.873Z,44.7
2018-07-20T09:54:55.272Z,44.6
2018-07-20T09:56:04.691Z,44.6
2018-07-20T09:57:14.099Z,44.6
2018-07-20T09:58:23.523Z,44.6
2018-07-20T09:59:33.284Z,44.6
2018-07-20T10:00:43.533Z,44.6
2018-07-20T10:01:52.445Z,44.6
2018-07-20T10:03:02.368Z,44.6
2018-07-20T10:04:11.779Z,44.6
2018-07-20T10:05:21.188Z,44.6
2018-07-20T10:06:30.341Z,44.41
2018-07-20T10:07:39.485Z,44.51
2018-07-20T10:08:49.408Z,44.41
2018-07-20T10:09:58.319Z,44.51
2018-07-20T10:11:07.226Z,44.6
2018-07-20T10:12:16.639Z,44.7
2018-07-20T10:13:25.788Z,44.6
2018-07-20T10:14:35.198Z,44.6
2018-07-20T10:15:44.882Z,44.6
2018-07-20T10:16:54.044Z,44.6
2018-07-20T10:18:02.930Z,44.41
2018-07-20T10:19:12.627Z,44.6
2018-07-20T10:20:21.976Z,44.7
2018-07-20T10:21:30.612Z,44.7
2018-07-20T10:22:39.767Z,44.7
2018-07-20T10:23:49.178Z,44.6
2018-07-20T10:24:58.337Z,44.7
2018-07-20T10:26:07.746Z,44.6
2018-07-20T10:27:17.407Z,44.6
2018-07-20T10:28:26.561Z,44.6
2018-07-20T10:29:35.449Z,44.6
2018-07-20T10:30:45.342Z,44.6
2018-07-20T10:31:55.340Z,44.7
2018-07-20T10:33:04.509Z,44.6
2018-07-20T10:34:13.922Z,44.7
2018-07-20T10:35:23.361Z,44.7
2018-07-20T10:36:32.558Z,44.6
2018-07-20T10:37:42.160Z,44.7
2018-07-20T10:38:51.850Z,44.6
2018-07-20T10:40:01.278Z,44.6
2018-07-20T10:41:10.944Z,44.7
2018-07-20T10:42:20.110Z,44.6
2018-07-20T10:43:30.045Z,44.51
2018-07-20T10:44:39.794Z,44.6
2018-07-20T10:45:49.262Z,44.6
2018-07-20T10:46:58.578Z,44.51
2018-07-20T10:48:07.568Z,44.51
2018-07-20T10:49:17.271Z,44.7
2018-07-20T10:50:26.176Z,44.6
2018-07-20T10:51:35.326Z,44.6
2018-07-20T10:52:44.499Z,44.6
2018-07-20T10:53:53.668Z,44.51
2018-07-20T10:55:03.350Z,44.6
2018-07-20T10:56:12.828Z,44.6
2018-07-20T10:57:21.986Z,44.41
2018-07-20T10:58:31.213Z,44.6
2018-07-20T10:59:40.128Z,44.6
2018-07-20T11:00:49.278Z,44.7
2018-07-20T11:01:58.533Z,44.6
2018-07-20T11:03:07.943Z,44.51
2018-07-20T11:04:16.874Z,44.7
2018-07-20T11:05:26.550Z,44.6
2018-07-20T11:06:35.733Z,44.6
2018-07-20T11:07:45.131Z,44.6
2018-07-20T11:08:54.810Z,44.41
2018-07-20T11:10:04.217Z,44.7
2018-07-20T11:11:13.366Z,44.6
2018-07-20T11:12:22.282Z,44.6
2018-07-20T11:13:31.974Z,44.51
2018-07-20T11:14:41.449Z,44.51
2018-07-20T11:15:50.349Z,44.6
2018-07-20T11:16:59.513Z,44.6
2018-07-20T11:18:08.409Z,44.51
2018-07-20T11:19:17.811Z,44.6
2018-07-20T11:20:26.732Z,44.41
2018-07-20T11:21:35.945Z,44.6
2018-07-20T11:22:45.359Z,44.7
2018-07-20T11:23:54.527Z,44.6
2018-07-20T11:25:03.935Z,44.6
2018-07-20T11:26:12.866Z,44.51
2018-07-20T11:27:22.025Z,44.6
2018-07-20T11:28:31.689Z,44.51
2018-07-20T11:29:41.095Z,44.51
2018-07-20T11:30:50.770Z,44.6
2018-07-20T11:32:00.223Z,44.6
2018-07-20T11:33:09.896Z,44.6
2018-07-20T11:34:19.315Z,44.6
2018-07-20T11:35:28.464Z,44.7
2018-07-20T11:36:37.611Z,44.6
2018-07-20T11:37:46.764Z,44.51
2018-07-20T11:38:56.202Z,44.6
2018-07-20T11:40:05.609Z,44.6
2018-07-20T11:41:15.031Z,44.7
2018-07-20T11:42:24.181Z,44.6
2018-07-20T11:43:33.864Z,44.41
2018-07-20T11:44:42.501Z,44.7
2018-07-20T11:45:51.417Z,44.7
2018-07-20T11:47:01.070Z,44.6
2018-07-20T11:48:10.486Z,44.7
2018-07-20T11:49:19.640Z,44.6
2018-07-20T11:50:29.048Z,44.6
2018-07-20T11:51:37.949Z,44.6
2018-07-20T11:52:47.358Z,44.6
2018-07-20T11:53:56.258Z,44.6
2018-07-20T11:55:05.659Z,44.6
2018-07-20T11:56:14.817Z,44.6
2018-07-20T11:57:23.719Z,44.7
2018-07-20T11:58:33.646Z,44.7
2018-07-20T11:59:43.301Z,44.6
2018-07-20T12:00:52.183Z,44.6
2018-07-20T12:02:01.682Z,44.51
2018-07-20T12:03:11.089Z,44.51
2018-07-20T12:04:20.497Z,44.51
2018-07-20T12:05:29.914Z,44.51
2018-07-20T12:06:39.840Z,44.6
2018-07-20T12:07:48.483Z,44.6
2018-07-20T12:08:57.634Z,44.41
2018-07-20T12:10:07.317Z,44.6
2018-07-20T12:11:16.731Z,44.51
2018-07-20T12:12:26.403Z,44.6
2018-07-20T12:13:35.555Z,44.51
2018-07-20T12:14:44.700Z,44.6
2018-07-20T12:15:54.146Z,44.51
2018-07-20T12:17:03.831Z,44.51
2018-07-20T12:18:12.986Z,44.6
2018-07-20T12:19:22.930Z,44.6
2018-07-20T12:20:32.354Z,44.6
2018-07-20T12:21:41.787Z,44.6
2018-07-20T12:22:51.439Z,44.51
2018-07-20T12:24:00.594Z,44.41
2018-07-20T12:25:09.758Z,44.51
2018-07-20T12:26:18.916Z,44.6
2018-07-20T12:27:28.065Z,44.41
2018-07-20T12:28:37.479Z,44.51
2018-07-20T12:29:46.656Z,44.51
2018-07-20T12:30:55.553Z,44.6
2018-07-20T12:32:04.730Z,44.51
2018-07-20T12:33:13.896Z,44.51
2018-07-20T12:34:23.328Z,44.51
2018-07-20T12:35:32.769Z,44.51
2018-07-20T12:36:42.187Z,44.51
2018-07-20T12:37:51.864Z,44.51
2018-07-20T12:39:01.032Z,44.51
2018-07-20T12:40:09.660Z,44.51
2018-07-20T12:41:18.605Z,44.6
2018-07-20T12:42:27.712Z,44.7
2018-07-20T12:43:37.207Z,44.6
2018-07-20T12:44:46.634Z,44.41
2018-07-20T12:45:56.094Z,44.51
2018-07-20T12:47:05.497Z,44.79
2018-07-20T12:48:14.927Z,44.51
2018-07-20T12:49:23.820Z,44.51
2018-07-20T12:50:33.077Z,44.41
2018-07-20T12:51:42.230Z,44.51
2018-07-20T12:52:51.386Z,44.6
2018-07-20T12:54:01.043Z,44.41
2018-07-20T12:55:10.749Z,44.51
2018-07-20T12:56:19.383Z,44.51
2018-07-20T12:57:28.798Z,44.51
2018-07-20T12:58:38.023Z,44.51
2018-07-20T12:59:47.643Z,44.43
2018-07-20T13:00:57.043Z,44.41
2018-07-20T13:02:06.474Z,44.31
2018-07-20T13:03:15.370Z,44.21
2018-07-20T13:04:24.527Z,44.41
2018-07-20T13:05:33.453Z,44.21
2018-07-20T13:06:42.603Z,44.41
2018-07-20T13:07:51.751Z,44.24
2018-07-20T13:09:01.414Z,44.51
2018-07-20T13:10:11.082Z,44.41
2018-07-20T13:11:20.748Z,44.53
2018-07-20T13:12:30.222Z,44.51
2018-07-20T13:13:39.637Z,44.41
2018-07-20T13:14:49.083Z,44.51
2018-07-20T13:15:57.974Z,44.6
2018-07-20T13:17:07.666Z,44.51
2018-07-20T13:18:17.249Z,44.51
2018-07-20T13:19:26.402Z,44.6
2018-07-20T13:20:35.803Z,44.31
2018-07-20T13:21:44.960Z,44.51
2018-07-20T13:22:54.365Z,44.33
2018-07-20T13:24:03.524Z,44.33
2018-07-20T13:25:13.220Z,44.33
2018-07-20T13:26:22.894Z,44.31
2018-07-20T13:27:32.560Z,44.41
2018-07-20T13:28:41.726Z,44.43
2018-07-20T13:29:51.138Z,44.53
2018-07-20T13:31:00.555Z,44.31
2018-07-20T13:32:09.455Z,44.41
2018-07-20T13:33:18.599Z,44.43
2018-07-20T13:34:27.743Z,44.31
2018-07-20T13:35:37.409Z,44.31
2018-07-20T13:36:46.304Z,44.33
2018-07-20T13:37:55.196Z,44.7
2018-07-20T13:39:04.872Z,44.21
2018-07-20T13:40:14.285Z,44.31
2018-07-20T13:41:23.941Z,44.31
2018-07-20T13:42:33.729Z,44.31
2018-07-20T13:43:42.909Z,44.33
2018-07-20T13:44:52.059Z,44.62
2018-07-20T13:46:01.218Z,44.33
2018-07-20T13:47:10.371Z,44.53
2018-07-20T13:48:19.779Z,44.43
2018-07-20T13:49:28.693Z,44.62
2018-07-20T13:50:38.098Z,44.33
2018-07-20T13:51:47.509Z,44.53
2018-07-20T13:52:56.733Z,44.62
2018-07-20T13:54:06.220Z,44.33
2018-07-20T13:55:15.627Z,44.33
2018-07-20T13:56:24.562Z,44.43
2018-07-20T13:57:33.715Z,44.53
2018-07-20T13:58:43.128Z,44.43
2018-07-20T13:59:52.551Z,44.53
2018-07-20T14:01:01.950Z,44.33
2018-07-20T14:02:11.648Z,44.43
2018-07-20T14:03:21.314Z,44.53
2018-07-20T14:04:30.961Z,44.53
2018-07-20T14:05:39.606Z,44.53
2018-07-20T14:06:48.743Z,44.53
2018-07-20T14:07:57.901Z,44.53
2018-07-20T14:09:07.562Z,44.53
2018-07-20T14:10:16.456Z,44.53
2018-07-20T14:11:26.270Z,44.53
2018-07-20T14:12:36.298Z,44.53
2018-07-20T14:13:45.713Z,44.53
2018-07-20T14:14:55.442Z,44.53
2018-07-20T14:16:04.866Z,44.62
2018-07-20T14:17:14.544Z,44.53
2018-07-20T14:18:24.204Z,44.43
2018-07-20T14:19:33.119Z,44.43
2018-07-20T14:20:42.274Z,44.04
2018-07-20T14:21:51.695Z,44.43
2018-07-20T14:23:01.094Z,44.62
2018-07-20T14:24:09.988Z,44.62
2018-07-20T14:25:19.132Z,44.24
2018-07-20T14:26:28.674Z,44.24
2018-07-20T14:27:37.892Z,44.43
2018-07-20T14:28:47.055Z,44.43
2018-07-20T14:29:56.717Z,44.24
2018-07-20T14:31:05.877Z,44.24
2018-07-20T14:32:15.827Z,44.62
2018-07-20T14:33:24.978Z,44.24
2018-07-20T14:34:34.132Z,44.24
2018-07-20T14:35:43.288Z,44.14
2018-07-20T14:36:52.692Z,44.24
2018-07-20T14:38:01.847Z,44.04
2018-07-20T14:39:10.997Z,44.14
2018-07-20T14:40:20.394Z,44.04
2018-07-20T14:41:29.789Z,44.33
2018-07-20T14:42:39.223Z,44.24
2018-07-20T14:43:48.631Z,44.14
2018-07-20T14:44:58.310Z,44.04
2018-07-20T14:46:07.478Z,44.04
2018-07-20T14:47:16.879Z,44.14
2018-07-20T14:48:26.542Z,44.43
2018-07-20T14:49:35.703Z,44.04
2018-07-20T14:50:44.844Z,44.04
2018-07-20T14:51:54.002Z,44.14
2018-07-20T14:53:03.668Z,44.04
2018-07-20T14:54:12.812Z,44.04
2018-07-20T14:55:22.474Z,44.04
2018-07-20T14:56:31.362Z,44.14
2018-07-20T14:57:41.025Z,44.14
2018-07-20T14:58:50.702Z,44.04